Cambridge, VT

6:33 AM EDT on September 19, 2014 (GMT -0400)
Smuggs View | Change Station
CLOSE
Current Station
Personal Weather Station
Location: Jeffersonville, VT
Elevation: 1145 ft
Nearby Weather Stations
Active Advisory: Freeze Warning Active Notice: Record Report

Elev 1145 ft 44.60 °N, 72.80 °W | Updated 12 seconds ago

Partly Cloudy
Partly Cloudy
33.3 °F
Feels Like 33 °F
N
0.0
Wind Variable Wind from West
Gusts 0.2 mph

Today
High -- | Low -- °F
--% Chance of Precip.
Yesterday
High -- | Low -- °F
Precip. -- in
6:34 AM 6:54 PM
Waning Crescent, 20% visible
Pressure 30.39 in
Visibility 0.2 miles
Clouds
Windchill 33 °F
Dew Point 28 °F
Humidity 81%
Rainfall 0.00 in
Snow Depth Not available.
UV Not available.
Pollen 2.20 out of 12
Ozone Good
PM2.5 Good
Flu Activity Not available.
METAR KMVL 190954Z AUTO 00000KT 1/4SM FZFG VV002 M01/M02 A3037 RMK AO2 SLP291 T10111017

More Conditions Fewer Conditions

Pressure 30.39 in
Visibility 0.2 miles
Clouds
Windchill 33 °F
Dew Point 28 °F
Humidity 81%
Rainfall 0.00 in
Snow Depth Not available.
UV Not available.
Pollen 2.20 out of 12
Ozone Good
PM2.5 Good
Flu Activity Not available.
METAR KMVL 190954Z AUTO 00000KT 1/4SM FZFG VV002 M01/M02 A3037 RMK AO2 SLP291 T10111017

More Conditions Fewer Conditions

10-Day Weather Forecast

Almanac

Astronomy

Sep. 19, 2014 Rise Set
Actual Time 6:34 AM EDT 6:54 PM EDT
Civil Twilight 6:05 AM EDT 7:23 PM EDT
Nautical Twilight 5:31 AM EDT 7:57 PM EDT
Astronomical Twilight 4:55 AM EDT 8:33 PM EDT
Moon 2:09 AM EDT 4:28 PM EDT
Length of Visible Light 13h 18m
Length of Day
12h 19m
Tomorrow will be 3m 4s shorter.
Waning Crescent, 20% of the Moon is Illuminated
Today
Waning Crescent
Sep 24
New
Oct 1
First Quarter
Oct 8
Full
Oct 15
Last Quarter

Today's Extremes

State Highs State Lows

Community

WunderPhotos

Upload Photos

1,754,585 photos uploaded!

Nearby

Air Quality

  Air Quality AQ Index Pollutant
Yesterday Good
OZONE
Yesterday Good
PM2.5
Current Good
PM2.5
Current Good
OZONE
Friday Good
PM2.5
Friday Good
OZONE

Snow Depth

Station Depth Elevation
No new snow has been reported.

Earthquake Activity

City Distance Mag. Time & Date
No recent earthquake activity has been reported nearby.
Minimum magnitude displayed is 2.5.

Coastal Water Temperatures

Place Temperature
No Stations Reporting

Nearby Weather Stations